Time;durP1;ratioP1;P1;durP2;ratioP2;P2;SDS_P1;SDS_P2;PMS_P1;PMS_P2;Temp;Humidity;BMP_temperature;BMP_pressure;BME280_temperature;BME280_humidity;BME280_pressure;Samples;Min_cycle;Max_cycle;Signal;HPM_P1;HPM_P2
2023/04/21 00:00:08;;;;;;;43.00;23.35;;;;;;;4.82;100.00;98447.16;4160248;28;20065;-75
2023/04/21 00:02:09;;;;;;;42.00;24.25;;;;;;;4.77;100.00;98448.16;4161859;28;20026;-75
2023/04/21 00:04:12;;;;;;;46.75;24.17;;;;;;;4.70;100.00;98445.19;4160060;28;20420;-75
2023/04/21 00:06:12;;;;;;;41.80;21.75;;;;;;;4.68;100.00;98445.53;4161749;28;20041;-75
2023/04/21 00:08:13;;;;;;;42.00;22.38;;;;;;;4.62;100.00;98452.34;4162182;28;20121;-75
2023/04/21 00:10:14;;;;;;;43.15;23.98;;;;;;;4.57;100.00;98449.06;4167128;28;20041;-75
2023/04/21 00:12:14;;;;;;;38.72;21.17;;;;;;;4.54;100.00;98449.72;4161105;28;20472;-75
2023/04/21 00:14:14;;;;;;;42.88;22.75;;;;;;;4.53;100.00;98454.38;4159749;28;20021;-75
2023/04/21 00:16:15;;;;;;;39.35;21.92;;;;;;;4.50;100.00;98450.41;4164584;28;20029;-75
2023/04/21 00:18:16;;;;;;;39.38;21.25;;;;;;;4.51;100.00;98453.94;4164942;28;20021;-75
2023/04/21 00:20:17;;;;;;;35.83;21.17;;;;;;;4.47;100.00;98445.59;4160703;28;20156;-75
2023/04/21 00:22:17;;;;;;;38.65;20.38;;;;;;;4.44;100.00;98453.69;4159854;28;20083;-75
2023/04/21 00:24:18;;;;;;;42.65;21.52;;;;;;;4.47;100.00;98461.25;4159808;28;20037;-75
2023/04/21 00:26:19;;;;;;;34.75;20.42;;;;;;;4.42;100.00;98458.72;4164804;28;20531;-75
2023/04/21 00:28:20;;;;;;;39.50;20.08;;;;;;;4.42;100.00;98456.75;4178387;28;20397;-75
2023/04/21 00:30:20;;;;;;;31.83;19.30;;;;;;;4.44;100.00;98467.38;4160933;28;20033;-75
2023/04/21 00:32:21;;;;;;;41.25;21.05;;;;;;;4.39;100.00;98453.91;4162708;28;20054;-75
2023/04/21 00:34:21;;;;;;;35.95;19.05;;;;;;;4.31;100.00;98452.84;4160317;28;20467;-75
2023/04/21 00:36:23;;;;;;;37.92;21.23;;;;;;;4.23;100.00;98451.81;4160895;28;20124;-75
2023/04/21 00:38:23;;;;;;;35.75;19.58;;;;;;;4.14;100.00;98451.09;4162160;28;20049;-75
2023/04/21 00:40:24;;;;;;;38.00;20.52;;;;;;;4.15;100.00;98451.88;4161624;28;20049;-75
2023/04/21 00:42:24;;;;;;;41.30;21.85;;;;;;;4.09;100.00;98448.53;4143558;28;20042;-75
2023/04/21 00:44:25;;;;;;;40.42;20.90;;;;;;;4.10;100.00;98446.59;4160095;28;20092;-75
2023/04/21 00:46:25;;;;;;;40.75;22.15;;;;;;;4.11;100.00;98449.00;4161551;28;20061;-75
2023/04/21 00:48:26;;;;;;;37.38;20.42;;;;;;;4.02;100.00;98451.00;4160451;28;20615;-75
2023/04/21 00:50:27;;;;;;;39.17;20.63;;;;;;;4.00;100.00;98456.03;4165078;28;20059;-75
2023/04/21 00:52:28;;;;;;;36.30;19.90;;;;;;;3.97;100.00;98450.41;4160313;28;20060;-75
2023/04/21 00:54:28;;;;;;;37.05;19.13;;;;;;;3.94;100.00;98449.16;4160066;28;20110;-75
2023/04/21 00:56:31;;;;;;;35.38;19.75;;;;;;;3.89;100.00;98449.38;4163351;28;20037;-75
2023/04/21 00:58:32;;;;;;;34.75;19.77;;;;;;;3.79;100.00;98439.59;4161636;28;20077;-75
2023/04/21 01:00:33;;;;;;;34.13;18.65;;;;;;;3.76;100.00;98445.75;4162545;28;20048;-75
2023/04/21 01:02:38;;;;;;;33.40;17.30;;;;;;;3.72;100.00;98447.53;4159144;28;20034;-75
2023/04/21 01:04:39;;;;;;;30.20;19.02;;;;;;;3.69;100.00;98444.69;4159827;28;20037;-75
2023/04/21 01:06:40;;;;;;;34.88;21.02;;;;;;;3.66;100.00;98436.00;4159987;28;20493;-75
2023/04/21 01:08:41;;;;;;;36.88;18.90;;;;;;;3.66;100.00;98437.97;4160594;28;20037;-75
2023/04/21 01:10:41;;;;;;;35.40;19.88;;;;;;;3.63;100.00;98444.06;4160727;28;20052;-75
2023/04/21 01:12:43;;;;;;;34.22;18.08;;;;;;;3.61;100.00;98441.69;4160387;28;20073;-75
2023/04/21 01:14:44;;;;;;;34.65;18.77;;;;;;;3.64;100.00;98441.03;4161559;28;20045;-75
2023/04/21 01:16:45;;;;;;;37.60;20.65;;;;;;;3.67;100.00;98434.88;4162090;28;20538;-75
2023/04/21 01:18:46;;;;;;;34.92;19.95;;;;;;;3.67;100.00;98429.41;4161315;28;20041;-75
2023/04/21 01:20:48;;;;;;;39.63;20.50;;;;;;;3.69;100.00;98440.00;4160170;28;20072;-74
2023/04/21 01:22:50;;;;;;;38.60;20.63;;;;;;;3.77;100.00;98433.69;4158709;28;20507;-75
2023/04/21 01:24:50;;;;;;;40.97;21.35;;;;;;;3.81;100.00;98439.31;4159663;28;20185;-75
2023/04/21 01:26:51;;;;;;;40.58;20.60;;;;;;;3.82;100.00;98433.47;4160266;28;20402;-75
2023/04/21 01:28:55;;;;;;;40.38;21.17;;;;;;;3.77;100.00;98432.88;4160171;28;20390;-74
2023/04/21 01:30:56;;;;;;;38.75;19.75;;;;;;;3.74;100.00;98439.03;4159903;28;20054;-75
2023/04/21 01:32:58;;;;;;;36.08;20.10;;;;;;;3.74;100.00;98448.03;4160941;28;20596;-75
2023/04/21 01:34:59;;;;;;;;;;;;;;;3.71;100.00;98445.16;4161986;28;20136;-75
2023/04/21 01:36:59;;;;;;;41.78;21.48;;;;;;;3.70;100.00;98446.28;4164456;28;19959;-75
2023/04/21 01:39:00;;;;;;;36.00;18.27;;;;;;;3.65;100.00;98445.38;4164258;28;20052;-75
2023/04/21 01:41:00;;;;;;;35.17;19.38;;;;;;;3.57;100.00;98446.22;4162079;28;20373;-75
2023/04/21 01:43:02;;;;;;;38.85;21.02;;;;;;;3.56;100.00;98455.56;4162488;28;20095;-75
2023/04/21 01:45:03;;;;;;;41.67;21.35;;;;;;;3.49;100.00;98441.63;4160653;28;20126;-75
2023/04/21 01:47:04;;;;;;;35.88;19.30;;;;;;;3.47;100.00;98440.31;4177272;28;20036;-75
2023/04/21 01:49:05;;;;;;;34.63;19.05;;;;;;;3.40;100.00;98440.88;4160882;28;20056;-75
2023/04/21 01:51:06;;;;;;;35.95;18.60;;;;;;;3.26;100.00;98435.63;4158306;28;20041;-77
2023/04/21 01:53:06;;;;;;;31.63;17.13;;;;;;;3.16;100.00;98432.50;4142207;28;20318;-75
2023/04/21 01:55:07;;;;;;;37.80;19.85;;;;;;;3.10;100.00;98442.81;4162914;28;20142;-75
2023/04/21 01:57:07;;;;;;;36.67;19.27;;;;;;;3.01;100.00;98442.84;4161616;28;20382;-75
2023/04/21 01:59:08;;;;;;;34.42;18.95;;;;;;;2.95;100.00;98444.16;4159921;28;20113;-75
2023/04/21 02:01:08;;;;;;;36.50;18.23;;;;;;;2.90;100.00;98444.34;4161651;28;20045;-75
2023/04/21 02:03:09;;;;;;;37.88;19.48;;;;;;;2.85;100.00;98441.78;4159508;28;20464;-74
2023/04/21 02:05:09;;;;;;;44.40;21.48;;;;;;;2.83;100.00;98444.06;4157863;28;20124;-75
2023/04/21 02:07:09;;;;;;;45.30;21.52;;;;;;;2.80;100.00;98453.69;4142084;28;20077;-75
2023/04/21 02:09:10;;;;;;;47.00;22.85;;;;;;;2.75;100.00;98440.22;4159520;28;20041;-75
2023/04/21 02:11:10;;;;;;;48.97;21.90;;;;;;;2.72;100.00;98437.34;4159869;28;20482;-75
2023/04/21 02:13:10;;;;;;;39.13;21.05;;;;;;;2.68;100.00;98439.13;4160721;28;20049;-75
2023/04/21 02:15:10;;;;;;;57.10;24.58;;;;;;;2.65;100.00;98446.06;4161081;28;20394;-75
2023/04/21 02:17:11;;;;;;;60.30;22.77;;;;;;;2.65;100.00;98432.41;4160927;28;20049;-75
2023/04/21 02:19:11;;;;;;;88.10;23.55;;;;;;;2.68;100.00;98444.59;4160574;28;20061;-75
2023/04/21 02:21:11;;;;;;;45.72;21.33;;;;;;;2.67;100.00;98429.34;4160271;28;20061;-75
2023/04/21 02:23:12;;;;;;;46.20;22.63;;;;;;;2.63;100.00;98440.09;4158177;28;20053;-75
2023/04/21 02:25:12;;;;;;;53.50;23.30;;;;;;;2.66;100.00;98453.13;4179071;28;20049;-75
2023/04/21 02:27:12;;;;;;;37.65;19.27;;;;;;;2.66;100.00;98449.59;4160061;28;20045;-74
2023/04/21 02:29:13;;;;;;;37.33;19.55;;;;;;;2.65;100.00;98446.06;4143066;28;20054;-75
2023/04/21 02:31:13;;;;;;;39.92;19.95;;;;;;;2.63;100.00;98444.75;4165322;28;20048;-74
2023/04/21 02:33:13;;;;;;;40.63;20.58;;;;;;;2.60;100.00;98442.69;4177133;28;20132;-75
2023/04/21 02:35:14;;;;;;;32.33;18.98;;;;;;;2.50;100.00;98436.47;4159878;28;20076;-75
2023/04/21 02:37:14;;;;;;;34.03;18.17;;;;;;;2.41;100.00;98434.88;4158566;28;20046;-75
2023/04/21 02:39:15;;;;;;;34.58;17.75;;;;;;;2.44;100.00;98439.69;4159598;28;20316;-75
2023/04/21 02:41:15;;;;;;;36.53;19.77;;;;;;;2.43;100.00;98438.88;4163336;28;20150;-75
2023/04/21 02:43:16;;;;;;;30.80;17.35;;;;;;;2.44;100.00;98429.56;4157865;28;20474;-75
2023/04/21 02:45:16;;;;;;;37.47;19.58;;;;;;;2.42;100.00;98436.50;4158558;28;20038;-75
2023/04/21 02:47:17;;;;;;;37.25;18.63;;;;;;;2.44;100.00;98432.28;4162066;28;20359;-75
2023/04/21 02:49:17;;;;;;;38.10;19.38;;;;;;;2.41;100.00;98434.88;4164393;28;20217;-74
2023/04/21 02:51:17;;;;;;;38.30;20.05;;;;;;;2.46;100.00;98437.44;4163549;28;20477;-75
2023/04/21 02:53:19;;;;;;;34.72;18.30;;;;;;;2.44;100.00;98431.50;4163629;28;20465;-75
2023/04/21 02:55:21;;;;;;;37.15;19.60;;;;;;;2.32;100.00;98428.63;4162882;28;20048;-75
2023/04/21 02:57:21;;;;;;;36.85;18.95;;;;;;;2.33;100.00;98424.78;4170014;28;20037;-75
2023/04/21 02:59:22;;;;;;;34.83;18.90;;;;;;;2.30;100.00;98439.88;4162408;28;20061;-74
2023/04/21 03:01:22;;;;;;;34.58;17.45;;;;;;;2.22;100.00;98414.19;4162905;28;20056;-75
2023/04/21 03:03:22;;;;;;;33.45;17.67;;;;;;;2.18;100.00;98443.28;4160929;28;20053;-75
2023/04/21 03:05:23;;;;;;;30.95;18.58;;;;;;;2.19;100.00;98444.88;4163392;28;20061;-75
2023/04/21 03:07:23;;;;;;;29.02;16.83;;;;;;;2.21;100.00;98441.81;4163366;28;20080;-74
2023/04/21 03:09:23;;;;;;;30.35;16.92;;;;;;;2.25;100.00;98440.84;4169119;28;20049;-75
2023/04/21 03:11:24;;;;;;;30.40;16.98;;;;;;;2.23;100.00;98432.19;4162579;28;20455;-75
2023/04/21 03:13:24;;;;;;;32.50;17.33;;;;;;;2.27;100.00;98434.28;4161053;28;20042;-75
2023/04/21 03:15:24;;;;;;;33.47;17.25;;;;;;;2.21;100.00;98430.91;4163364;28;20139;-75
2023/04/21 03:17:25;;;;;;;30.60;16.88;;;;;;;2.14;100.00;98427.84;4160562;28;20088;-75
2023/04/21 03:19:25;;;;;;;26.83;15.38;;;;;;;2.13;100.00;98439.91;4162563;28;20524;-75
2023/04/21 03:21:25;;;;;;;26.17;16.08;;;;;;;2.14;100.00;98436.03;4164955;28;20076;-75
2023/04/21 03:23:26;;;;;;;30.98;16.95;;;;;;;2.12;100.00;98430.13;4160980;28;20568;-75
2023/04/21 03:25:26;;;;;;;28.70;15.85;;;;;;;2.12;100.00;98444.56;4179451;28;20091;-75
2023/04/21 03:27:26;;;;;;;30.88;17.50;;;;;;;2.17;100.00;98438.16;4162361;28;20041;-74
2023/04/21 03:29:27;;;;;;;28.90;17.17;;;;;;;2.25;100.00;98431.88;4168365;28;20125;-75
2023/04/21 03:31:27;;;;;;;29.65;17.30;;;;;;;2.34;100.00;98427.19;4161475;28;20060;-75
2023/04/21 03:33:28;;;;;;;30.73;17.08;;;;;;;2.47;100.00;98434.38;4160825;28;20246;-75
2023/04/21 03:35:29;;;;;;;31.42;16.63;;;;;;;2.48;100.00;98432.44;4161707;28;20068;-75
2023/04/21 03:37:30;;;;;;;28.42;16.30;;;;;;;2.48;100.00;98429.69;4160863;28;20037;-74
2023/04/21 03:39:30;;;;;;;29.10;16.77;;;;;;;2.42;100.00;98437.28;4163671;28;20056;-75
2023/04/21 03:41:32;;;;;;;28.40;15.98;;;;;;;2.34;100.00;98442.78;4163590;28;20235;-75
2023/04/21 03:43:33;;;;;;;30.58;15.75;;;;;;;2.27;100.00;98443.25;4160958;28;20045;-75
2023/04/21 03:45:36;;;;;;;29.08;16.10;;;;;;;2.19;100.00;98444.06;4165133;28;20060;-75
2023/04/21 03:47:39;;;;;;;31.20;15.75;;;;;;;2.15;100.00;98445.84;4163292;28;20204;-74
2023/04/21 03:49:40;;;;;;;31.98;16.83;;;;;;;2.09;100.00;98442.50;4162455;28;20380;-75
2023/04/21 03:51:40;;;;;;;31.67;16.98;;;;;;;2.11;100.00;98437.50;4176176;28;20042;-75
2023/04/21 03:53:41;;;;;;;30.88;16.90;;;;;;;2.07;100.00;98446.66;4164139;28;20029;-75
2023/04/21 03:55:41;;;;;;;28.83;17.35;;;;;;;2.02;100.00;98446.81;4161345;28;20056;-74
2023/04/21 03:57:41;;;;;;;34.05;16.90;;;;;;;2.01;100.00;98440.56;4160480;28;20072;-74
2023/04/21 03:59:42;;;;;;;27.52;16.60;;;;;;;2.09;100.00;98452.59;4161394;28;20045;-75
2023/04/21 04:01:42;;;;;;;28.63;15.80;;;;;;;2.09;100.00;98450.69;4186410;28;20045;-75
2023/04/21 04:03:43;;;;;;;28.23;16.00;;;;;;;2.08;100.00;98446.34;4164052;28;20033;-75
2023/04/21 04:05:43;;;;;;;28.50;15.10;;;;;;;2.03;100.00;98441.03;4162539;28;20595;-75
2023/04/21 04:07:44;;;;;;;26.35;14.18;;;;;;;1.97;100.00;98445.84;4167135;28;20041;-74
2023/04/21 04:09:44;;;;;;;26.83;15.77;;;;;;;1.92;100.00;98448.75;4162309;28;20513;-74
2023/04/21 04:11:44;;;;;;;28.30;17.25;;;;;;;1.87;100.00;98450.84;4165158;28;20072;-74
2023/04/21 04:13:45;;;;;;;27.42;16.48;;;;;;;1.86;100.00;98446.50;4159975;28;20048;-75
2023/04/21 04:15:45;;;;;;;27.67;15.82;;;;;;;1.88;100.00;98447.78;4160930;28;20037;-74
2023/04/21 04:17:45;;;;;;;26.23;15.50;;;;;;;1.87;100.00;98439.94;4160027;28;20045;-75
2023/04/21 04:19:46;;;;;;;25.35;15.25;;;;;;;1.84;100.00;98444.13;4161205;28;20179;-74
2023/04/21 04:21:46;;;;;;;25.25;15.25;;;;;;;1.85;100.00;98450.38;4161019;28;20139;-74
2023/04/21 04:23:51;;;;;;;24.45;15.02;;;;;;;1.90;100.00;98445.56;4160359;28;20052;-75
2023/04/21 04:25:51;;;;;;;24.65;14.60;;;;;;;1.93;100.00;98449.56;4160790;28;20041;-75
2023/04/21 04:27:52;;;;;;;23.55;13.57;;;;;;;1.92;100.00;98450.69;4162023;28;20037;-75
2023/04/21 04:29:53;;;;;;;24.70;14.30;;;;;;;1.93;100.00;98455.03;4161022;28;20065;-74
2023/04/21 04:31:53;;;;;;;23.50;14.20;;;;;;;1.91;100.00;98454.53;4162137;28;20041;-75
2023/04/21 04:33:54;;;;;;;25.30;14.23;;;;;;;1.91;100.00;98452.63;4159866;28;20484;-75
2023/04/21 04:35:54;;;;;;;26.73;15.27;;;;;;;1.90;100.00;98447.47;4160870;28;20037;-75
2023/04/21 04:37:55;;;;;;;29.77;15.23;;;;;;;1.93;100.00;98450.38;4160008;28;20061;-75
2023/04/21 04:39:56;;;;;;;28.67;15.25;;;;;;;1.94;100.00;98448.44;4161749;28;20045;-74
2023/04/21 04:41:57;;;;;;;23.35;13.85;;;;;;;1.97;100.00;98458.69;4159633;28;20435;-74
2023/04/21 04:43:58;;;;;;;23.92;14.63;;;;;;;2.04;100.00;98453.56;4160297;28;20168;-75
2023/04/21 04:46:00;;;;;;;26.02;14.65;;;;;;;2.08;100.00;98454.53;4163769;28;20057;-75
2023/04/21 04:48:00;;;;;;;27.97;16.50;;;;;;;2.20;100.00;98451.94;4159782;28;20053;-75
2023/04/21 04:50:00;;;;;;;28.55;15.65;;;;;;;2.27;100.00;98465.09;4160712;28;20040;-75
2023/04/21 04:52:01;;;;;;;38.47;20.48;;;;;;;2.32;100.00;98456.75;4160764;28;20053;-75
2023/04/21 04:54:01;;;;;;;37.13;19.88;;;;;;;2.39;100.00;98453.50;4162306;28;20033;-74
2023/04/21 04:56:01;;;;;;;45.10;22.98;;;;;;;2.49;100.00;98458.66;4165431;28;20033;-74
2023/04/21 04:58:02;;;;;;;45.10;24.48;;;;;;;2.56;100.00;98458.91;4116705;28;20057;-74
2023/04/21 05:00:06;;;;;;;37.03;21.92;;;;;;;2.64;100.00;98452.63;4162356;28;20037;-74
2023/04/21 05:02:06;;;;;;;38.53;21.33;;;;;;;2.70;100.00;98450.53;4177431;28;20079;-74
2023/04/21 05:04:06;;;;;;;34.75;20.70;;;;;;;2.75;100.00;98450.38;4159745;28;20021;-75
2023/04/21 05:06:07;;;;;;;42.05;22.75;;;;;;;2.79;100.00;98454.03;4159616;28;20477;-75
2023/04/21 05:08:07;;;;;;;39.42;23.30;;;;;;;2.82;100.00;98456.13;4165475;28;20469;-75
2023/04/21 05:10:08;;;;;;;36.88;21.67;;;;;;;2.87;100.00;98452.41;4162140;28;20537;-75
2023/04/21 05:12:08;;;;;;;34.58;19.45;;;;;;;2.94;100.00;98455.41;4164002;28;20416;-74
2023/04/21 05:14:08;;;;;;;33.60;19.42;;;;;;;3.00;100.00;98460.38;4161484;28;20140;-75
2023/04/21 05:16:10;;;;;;;31.75;18.27;;;;;;;3.08;100.00;98462.28;4164633;28;20049;-75
2023/04/21 05:18:10;;;;;;;28.42;17.42;;;;;;;3.12;100.00;98465.13;4165097;28;20041;-75
2023/04/21 05:20:10;;;;;;;32.55;17.27;;;;;;;3.21;100.00;98465.09;4163774;28;20040;-74
2023/04/21 05:22:11;;;;;;;30.58;17.35;;;;;;;3.26;100.00;98460.25;4161194;28;20049;-75
2023/04/21 05:24:11;;;;;;;32.20;17.35;;;;;;;3.32;100.00;98461.66;4160370;28;20028;-75
2023/04/21 05:26:11;;;;;;;29.83;17.35;;;;;;;3.43;100.00;98466.75;4159867;28;20473;-75
2023/04/21 05:28:12;;;;;;;33.10;18.35;;;;;;;3.49;100.00;98468.16;4160057;28;20036;-75
2023/04/21 05:30:13;;;;;;;28.58;18.33;;;;;;;3.57;100.00;98472.78;4159704;28;20033;-75
2023/04/21 05:32:14;;;;;;;30.00;16.30;;;;;;;3.64;100.00;98467.56;4161069;28;20084;-75
2023/04/21 05:34:14;;;;;;;29.42;17.17;;;;;;;3.74;100.00;98463.66;4173648;28;20029;-75
2023/04/21 05:36:14;;;;;;;29.67;17.33;;;;;;;3.82;100.00;98465.53;4162064;28;20170;-75
2023/04/21 05:38:15;;;;;;;28.83;15.93;;;;;;;3.87;100.00;98466.09;4161116;28;20473;-76
2023/04/21 05:40:15;;;;;;;29.30;16.38;;;;;;;3.96;100.00;98471.50;4144436;28;20057;-75
2023/04/21 05:42:17;;;;;;;28.33;16.95;;;;;;;4.04;100.00;98470.63;4160682;28;20026;-75
2023/04/21 05:44:17;;;;;;;26.63;15.93;;;;;;;4.11;100.00;98470.91;4157652;28;20026;-75
2023/04/21 05:46:17;;;;;;;27.92;16.73;;;;;;;4.15;100.00;98469.13;4158767;28;20040;-75
2023/04/21 05:48:18;;;;;;;27.67;16.65;;;;;;;4.20;100.00;98466.16;4143533;28;20073;-75
2023/04/21 05:50:18;;;;;;;29.00;16.65;;;;;;;4.24;100.00;98466.28;4158933;28;20025;-75
2023/04/21 05:52:22;;;;;;;31.88;18.20;;;;;;;4.31;100.00;98463.81;4159586;28;20022;-74
2023/04/21 05:54:22;;;;;;;29.95;17.23;;;;;;;4.37;100.00;98467.13;4158689;28;20045;-75
2023/04/21 05:56:23;;;;;;;34.58;16.50;;;;;;;4.43;100.00;98460.31;4160626;28;20057;-75
2023/04/21 05:58:23;;;;;;;31.60;18.33;;;;;;;4.48;100.00;98454.63;4159700;28;20084;-75
2023/04/21 06:00:23;;;;;;;31.83;18.08;;;;;;;4.54;100.00;98458.72;4160307;28;20045;-75
2023/04/21 06:02:24;;;;;;;32.38;18.27;;;;;;;4.58;100.00;98456.13;4160108;28;20072;-75
2023/04/21 06:04:24;;;;;;;30.52;17.77;;;;;;;4.64;100.00;98450.09;4158302;28;20049;-75
2023/04/21 06:06:25;;;;;;;31.40;17.67;;;;;;;4.74;100.00;98451.59;4159768;28;20267;-75
2023/04/21 06:08:26;;;;;;;31.98;18.40;;;;;;;4.81;100.00;98445.56;4158522;28;20037;-75
2023/04/21 06:10:26;;;;;;;33.00;19.35;;;;;;;4.88;100.00;98443.84;4160583;28;20076;-75
2023/04/21 06:12:26;;;;;;;29.90;17.80;;;;;;;4.97;100.00;98432.78;4159423;28;20069;-75
2023/04/21 06:14:27;;;;;;;36.97;19.55;;;;;;;5.02;100.00;98436.06;4160521;28;20034;-74
2023/04/21 06:16:28;;;;;;;34.95;18.88;;;;;;;5.08;100.00;98429.22;4161020;28;20037;-74
2023/04/21 06:18:28;;;;;;;39.65;22.52;;;;;;;5.21;100.00;98437.44;4159272;28;20132;-75
2023/04/21 06:20:28;;;;;;;37.13;21.27;;;;;;;5.33;100.00;98430.03;4159564;28;20042;-75
2023/04/21 06:22:29;;;;;;;40.38;22.58;;;;;;;5.43;100.00;98428.75;4167731;28;20100;-75
2023/04/21 06:24:32;;;;;;;39.22;21.98;;;;;;;5.52;100.00;98431.34;4165169;28;20037;-75
2023/04/21 06:26:32;;;;;;;41.72;21.30;;;;;;;5.56;100.00;98419.34;4161791;28;20493;-75
2023/04/21 06:28:34;;;;;;;37.85;21.88;;;;;;;5.59;100.00;98418.66;4167329;28;20146;-75
2023/04/21 06:30:34;;;;;;;35.38;21.23;;;;;;;5.66;100.00;98420.81;4163031;28;20029;-74
2023/04/21 06:32:35;;;;;;;36.28;20.58;;;;;;;5.75;100.00;98431.66;4161169;28;20032;-74
2023/04/21 06:34:35;;;;;;;42.15;20.98;;;;;;;5.83;100.00;98425.22;4166601;28;20037;-75
2023/04/21 06:36:35;;;;;;;38.33;21.25;;;;;;;5.91;100.00;98425.13;4176622;28;20123;-75
2023/04/21 06:38:36;;;;;;;36.13;20.08;;;;;;;6.03;100.00;98427.00;4162783;28;20603;-75
2023/04/21 06:40:36;;;;;;;38.97;20.90;;;;;;;6.09;100.00;98428.38;4162209;28;20084;-75
2023/04/21 06:42:36;;;;;;;35.75;20.70;;;;;;;6.17;100.00;98432.91;4162220;28;20468;-75
2023/04/21 06:44:37;;;;;;;37.30;20.55;;;;;;;6.26;100.00;98441.00;4163160;28;20476;-75
2023/04/21 06:46:37;;;;;;;36.40;21.33;;;;;;;6.35;100.00;98433.41;4163027;28;20048;-75
2023/04/21 06:48:38;;;;;;;34.83;20.17;;;;;;;6.41;100.00;98434.75;4163634;28;20053;-75
2023/04/21 06:50:38;;;;;;;38.53;20.80;;;;;;;6.58;100.00;98441.09;4165161;28;20114;-75
2023/04/21 06:52:38;;;;;;;33.75;19.48;;;;;;;6.66;100.00;98440.91;4161170;28;20075;-75
2023/04/21 06:54:39;;;;;;;35.90;19.92;;;;;;;6.75;100.00;98438.78;4159553;28;20302;-75
2023/04/21 06:56:41;;;;;;;34.75;20.35;;;;;;;6.86;100.00;98433.56;4163366;28;20034;-75
2023/04/21 06:58:42;;;;;;;34.92;20.02;;;;;;;6.96;100.00;98432.25;4161761;28;20079;-75
2023/04/21 07:00:42;;;;;;;31.92;19.15;;;;;;;7.07;100.00;98433.31;4161734;28;20041;-75
2023/04/21 07:02:42;;;;;;;31.38;18.25;;;;;;;7.13;100.00;98428.34;4161092;28;20049;-75
2023/04/21 07:04:42;;;;;;;37.40;21.08;;;;;;;7.20;100.00;98422.97;4161184;28;20077;-75
2023/04/21 07:06:43;;;;;;;35.92;21.30;;;;;;;7.25;100.00;98423.50;4163612;28;20226;-75
2023/04/21 07:08:43;;;;;;;32.83;19.70;;;;;;;7.30;100.00;98417.75;4169800;28;20048;-75
2023/04/21 07:10:44;;;;;;;32.80;19.90;;;;;;;7.37;100.00;98425.38;4161133;28;20103;-75
2023/04/21 07:12:45;;;;;;;33.13;20.50;;;;;;;7.44;100.00;98422.75;4159999;28;20034;-75
2023/04/21 07:14:45;;;;;;;27.67;17.70;;;;;;;7.51;100.00;98422.13;4161852;28;20126;-75
2023/04/21 07:16:45;;;;;;;33.40;19.23;;;;;;;7.58;100.00;98416.78;4165113;28;20048;-75
2023/04/21 07:18:46;;;;;;;29.45;18.08;;;;;;;7.63;100.00;98416.53;4161737;28;20050;-75
2023/04/21 07:20:46;;;;;;;29.45;17.58;;;;;;;7.67;100.00;98430.34;4164915;28;20470;-75
2023/04/21 07:22:46;;;;;;;27.98;17.77;;;;;;;7.70;100.00;98422.19;4163078;28;20192;-75
2023/04/21 07:24:46;;;;;;;26.02;17.50;;;;;;;7.75;100.00;98415.59;4160679;28;20073;-75
2023/04/21 07:26:47;;;;;;;31.42;17.65;;;;;;;7.78;100.00;98418.44;4162092;28;20068;-75
2023/04/21 07:28:49;;;;;;;32.42;17.90;;;;;;;7.85;100.00;98423.28;4158406;28;20669;-75
2023/04/21 07:30:49;;;;;;;28.92;16.40;;;;;;;7.92;100.00;98428.94;4159418;28;20074;-75
2023/04/21 07:32:50;;;;;;;25.30;16.92;;;;;;;7.99;100.00;98425.53;4156037;28;20037;-75
2023/04/21 07:34:50;;;;;;;34.17;18.42;;;;;;;8.07;100.00;98421.75;4161398;28;20380;-75
2023/04/21 07:36:51;;;;;;;26.60;17.10;;;;;;;8.11;100.00;98420.69;4166020;28;20098;-75
2023/04/21 07:38:51;;;;;;;29.50;16.42;;;;;;;8.13;100.00;98423.88;4159873;28;20048;-75
2023/04/21 07:40:52;;;;;;;28.20;16.38;;;;;;;8.13;100.00;98425.84;4164419;28;21888;-75
2023/04/21 07:42:52;;;;;;;25.73;16.02;;;;;;;8.17;100.00;98424.72;4166232;28;20372;-75
2023/04/21 07:44:54;;;;;;;25.52;15.55;;;;;;;8.27;100.00;98425.31;4160754;28;20305;-75
2023/04/21 07:46:55;;;;;;;25.10;15.82;;;;;;;8.35;100.00;98414.06;4160431;28;20048;-75
2023/04/21 07:48:56;;;;;;;29.55;17.55;;;;;;;8.43;100.00;98415.00;4160727;28;20474;-75
2023/04/21 07:50:59;;;;;;;26.55;16.70;;;;;;;8.49;100.00;98418.28;4179415;28;20053;-75
2023/04/21 07:53:00;;;;;;;28.98;16.35;;;;;;;8.51;100.00;98418.69;4162447;28;20467;-75
2023/04/21 07:55:00;;;;;;;28.02;16.50;;;;;;;8.57;100.00;98418.03;4160153;28;20111;-75
2023/04/21 07:57:01;;;;;;;28.80;16.35;;;;;;;8.63;100.00;98415.78;4166875;28;20049;-75
2023/04/21 07:59:02;;;;;;;29.25;17.00;;;;;;;8.66;100.00;98423.31;4167556;28;20132;-75
2023/04/21 08:01:02;;;;;;;26.70;16.38;;;;;;;8.75;100.00;98418.34;4163329;28;20142;-75
2023/04/21 08:03:03;;;;;;;27.50;16.27;;;;;;;8.78;100.00;98420.41;4158802;28;20041;-75
2023/04/21 08:05:03;;;;;;;29.70;16.92;;;;;;;8.77;100.00;98410.53;4165823;28;20473;-75
2023/04/21 08:07:04;;;;;;;28.08;16.42;;;;;;;8.84;100.00;98412.59;4159364;28;20446;-75
2023/04/21 08:09:04;;;;;;;27.05;16.92;;;;;;;9.00;100.00;98413.25;4159932;28;20041;-75
2023/04/21 08:11:05;;;;;;;26.52;16.50;;;;;;;9.07;100.00;98421.66;4161031;28;20060;-76
2023/04/21 08:13:05;;;;;;;27.23;17.23;;;;;;;9.16;100.00;98413.94;4162199;28;20501;-76
2023/04/21 08:15:07;;;;;;;28.65;18.00;;;;;;;9.21;100.00;98404.53;4159124;28;20135;-75
2023/04/21 08:17:07;;;;;;;27.73;17.80;;;;;;;9.26;100.00;98412.50;4159812;28;20348;-75
2023/04/21 08:19:08;;;;;;;32.28;16.70;;;;;;;9.37;100.00;98409.91;4162941;28;20060;-75
2023/04/21 08:21:08;;;;;;;23.10;15.15;;;;;;;9.36;100.00;98409.13;4163244;28;20144;-76
2023/04/21 08:23:09;;;;;;;23.52;15.80;;;;;;;9.44;100.00;98412.78;4158856;28;20456;-76
2023/04/21 08:25:09;;;;;;;29.05;16.48;;;;;;;9.56;100.00;98399.53;4166548;28;20049;-75
2023/04/21 08:27:09;;;;;;;28.98;16.75;;;;;;;9.64;100.00;98399.66;4160775;28;20225;-75
2023/04/21 08:29:12;;;;;;;27.52;16.05;;;;;;;9.67;100.00;98396.13;4160736;28;20409;-76
2023/04/21 08:31:12;;;;;;;24.23;14.82;;;;;;;9.65;100.00;98402.03;4162755;28;20513;-76
2023/04/21 08:33:12;;;;;;;24.60;15.05;;;;;;;9.64;100.00;98400.44;4162682;28;20095;-75
2023/04/21 08:35:14;;;;;;;25.90;14.77;;;;;;;9.68;100.00;98398.53;4162599;28;20420;-76
2023/04/21 08:37:14;;;;;;;24.90;15.57;;;;;;;9.87;100.00;98389.31;4165826;28;20061;-76
2023/04/21 08:39:15;;;;;;;25.77;15.18;;;;;;;10.00;100.00;98390.63;4160492;28;20085;-76
2023/04/21 08:41:16;;;;;;;26.70;15.55;;;;;;;10.17;100.00;98388.47;4159068;28;20045;-76
2023/04/21 08:43:16;;;;;;;27.15;16.25;;;;;;;10.26;100.00;98384.28;4161141;28;20045;-76
2023/04/21 08:45:16;;;;;;;24.50;15.48;;;;;;;10.38;100.00;98375.72;4160165;28;20151;-76
2023/04/21 08:47:19;;;;;;;26.25;14.77;;;;;;;10.41;100.00;98372.19;4143187;28;20385;-76
2023/04/21 08:49:20;;;;;;;22.48;14.00;;;;;;;10.47;100.00;98369.09;4164239;28;20124;-75
2023/04/21 08:51:22;;;;;;;21.52;14.35;;;;;;;10.59;100.00;98371.56;4159420;28;20520;-76
2023/04/21 08:53:23;;;;;;;27.25;14.02;;;;;;;10.70;100.00;98375.25;4158503;28;20485;-75
2023/04/21 08:55:30;;;;;;;20.60;14.07;;;;;;;10.71;100.00;98376.03;4159846;28;20036;-75
2023/04/21 08:57:30;;;;;;;19.77;12.27;;;;;;;10.86;100.00;98377.75;4159902;28;20045;-75
2023/04/21 08:59:31;;;;;;;20.90;13.77;;;;;;;11.00;100.00;98377.06;4159957;28;20401;-76
2023/04/21 09:01:31;;;;;;;26.27;13.40;;;;;;;11.17;100.00;98365.31;4160821;28;20077;-76
2023/04/21 09:03:32;;;;;;;24.70;13.35;;;;;;;11.38;100.00;98378.53;4159482;28;20073;-76
2023/04/21 09:05:33;;;;;;;24.23;13.27;;;;;;;11.53;100.00;98374.69;4161106;28;20053;-76
2023/04/21 09:07:36;;;;;;;25.10;13.70;;;;;;;11.64;100.00;98372.75;4158238;28;20056;-76
2023/04/21 09:09:53;;;;;;;19.38;13.13;;;;;;;11.72;100.00;98365.28;4160347;28;20050;-76
2023/04/21 09:11:57;;;;;;;23.65;12.30;;;;;;;11.90;100.00;98370.94;4161487;28;20048;-76
2023/04/21 09:13:58;;;;;;;16.48;11.15;;;;;;;12.00;100.00;98376.53;4159438;28;20056;-76